Friday, December 14, 2018, 12:03 PM EST
Back to Local

KMHT, Manchester Airport

Location: Manchester, NH, United States Lat: 42.933
Local Time: 12:03 PM EST (17:03 GMT) Lon: -71.433
Time Zone: US/Eastern Elev: 232 ft

Show me the last for .
Show Decoded

2018-12-14 10:53 METAR KMHT 141553Z 21009KT 10SM SCT038 BKN250 03/M03 A3048 RMK AO2 SLP341
                 T00331033 =
2018-12-14 09:53 METAR KMHT 141453Z 18005KT 10SM FEW041 SCT100 BKN250 01/M06 A3051 RMK AO2 SLP349
                 T00111056 50004 =
2018-12-14 08:53 METAR KMHT 141353Z 00000KT 10SM OVC041 M02/M08 A3051 RMK AO2 SLP353 T10171078 =
2018-12-14 07:53 METAR KMHT 141253Z 00000KT 10SM OVC040 M03/M08 A3051 RMK AO2 SLP351 T10281078 =
2018-12-14 06:53 METAR KMHT 141153Z 00000KT 10SM OVC042 M03/M07 A3049 RMK AO2 SLP346 T10281072
                 11022 21033 58001 =
2018-12-14 05:53 METAR KMHT 141053Z 00000KT 10SM OVC045 M03/M08 A3050 RMK AO2 SLP348 T10331078 =
2018-12-14 04:53 METAR KMHT 140953Z 00000KT 10SM FEW022 M03/M08 A3050 RMK AO2 SLP349 T10331083 =
2018-12-14 04:31 METAR KMHT 140931Z 00000KT 10SM SCT023 M03/M08 A3050 RMK AO2 T10331083 =
2018-12-14 03:53 METAR KMHT 140853Z 00000KT 10SM BKN024 M03/M08 A3050 RMK AO2 SLP347 T10281083
                 58018 =
2018-12-14 02:53 METAR KMHT 140753Z 00000KT 10SM BKN025 M02/M08 A3053 RMK AO2 SLP357 T10221083 =
2018-12-14 01:53 METAR KMHT 140653Z 00000KT 10SM BKN028 OVC050 M03/M08 A3055 RMK AO2 SLP366
                 T10281083 =
2018-12-14 00:53 METAR KMHT 140553Z 00000KT 10SM OVC028 M03/M09 A3055 RMK AO2 SLP366 T10281089
                 11022 21033 51002 =
2018-12-14 00:16 METAR KMHT 140516Z 03003KT 10SM OVC028 M03/M09 A3054 RMK AO2 T10281089 =
2018-12-13 23:53 METAR KMHT 140453Z 00000KT 10SM OVC032 M03/M09 A3054 RMK AO2 SLP363 T10281094
                 410281117 =
2018-12-13 22:53 METAR KMHT 140353Z 32004KT 10SM BKN035 OVC055 M03/M09 A3056 RMK AO2 SLP370
                 T10281094 =
2018-12-13 21:53 METAR KMHT 140253Z 00000KT 10SM FEW040 OVC050 M03/M09 A3055 RMK AO2 SLP365
                 T10331094 50000 =
2018-12-13 20:53 METAR KMHT 140153Z 00000KT 10SM FEW040 OVC060 M03/M09 A3055 RMK AO2 SLP367
                 T10281094 =
2018-12-13 19:53 METAR KMHT 140053Z 36003KT 10SM BKN040 OVC065 M03/M10 A3056 RMK AO2 SLP368
                 T10331100 =
2018-12-13 18:53 METAR KMHT 132353Z 04006KT 10SM SCT048 OVC065 M03/M11 A3055 RMK AO2 SLP366
                 T10331106 11028 21044 51010 =
2018-12-13 17:53 METAR KMHT 132253Z 00000KT 10SM BKN050 BKN110 M03/M11 A3054 RMK AO2 SLP364
                 T10331106 =
2018-12-13 16:53 METAR KMHT 132153Z 00000KT 10SM BKN065 BKN110 BKN250 M03/M11 A3053 RMK AO2
                 SLP360 T10281111 =
2018-12-13 15:53 METAR KMHT 132053Z 00000KT 10SM FEW055 SCT075 BKN090 BKN250 M03/M11 A3052 RMK
                 AO2 SLP354 T10281111 53001 =
2018-12-13 14:53 METAR KMHT 131953Z 00000KT 10SM BKN110 BKN250 M03/M12 A3051 RMK AO2 SLP354
                 T10281117 =
2018-12-13 13:53 METAR KMHT 131853Z 31003KT 10SM BKN120 BKN250 M03/M13 A3051 RMK AO2 SLP353
                 T10331128 =
2018-12-13 12:53 METAR KMHT 131753Z 32004KT 10SM FEW045 BKN100 BKN250 M04/M14 A3051 RMK AO2
                 SLP354 T10441139 11044 21111 56006 =

Support USWX by starting your Amazon purchase here.